In Rescue
 
Open Full Screen Window  High Contrast Mode
Wind Gusting 00 knots
04
July 13, 2020 11:00 PM CDT
Present Weather: Thunderstorms in the Vicinity
Weather Information
Wind Direction
  270 °
Wind Speed
  04 kt (5 mph)
Wind Gust
  00 kt (0 mph)
Altimeter
29.74 in
Visibility
10 SM
Temperature
22° C
72° F
Dewpoint
20° C
68° F
Humidity
88%
1hr Rain Fall
00.00 in.
24hr Rain Fall
00.16 in.
Sky Condition
Missing
VFR

METAR KSAZ 140400Z AUTO 27004KT 10SM VCTS 22/20 A2974 RMK AO2 LTG DSNT E THRU S

FAA Disclaimer: The data displayed is for advisory purposes only and is not to be used for flight planning or operations.
Missing Cloud Data